createdAt,value
2023-03-24T00:00:38.111Z,97.03
2023-03-24T00:01:38.079Z,97.24
2023-03-24T00:02:38.218Z,97.13
2023-03-24T00:03:38.267Z,97.33
2023-03-24T00:04:38.107Z,97.24
2023-03-24T00:05:38.129Z,97.17
2023-03-24T00:06:38.053Z,97.33
2023-03-24T00:07:38.315Z,97.49
2023-03-24T00:08:39.142Z,97.58
2023-03-24T00:09:38.034Z,97.64
2023-03-24T00:10:38.066Z,97.69
2023-03-24T00:11:38.007Z,97.33
2023-03-24T00:12:38.004Z,97.95
2023-03-24T00:13:38.036Z,97.89
2023-03-24T00:14:37.984Z,97.99
2023-03-24T00:15:38.080Z,97.85
2023-03-24T00:16:37.973Z,97.54
2023-03-24T00:17:37.988Z,97.95
2023-03-24T00:18:37.966Z,98.36
2023-03-24T00:19:37.955Z,98.20
2023-03-24T00:20:37.963Z,98.10
2023-03-24T00:21:37.942Z,97.95
2023-03-24T00:22:37.915Z,97.79
2023-03-24T00:23:37.921Z,97.89
2023-03-24T00:24:37.940Z,97.85
2023-03-24T00:25:37.931Z,97.99
2023-03-24T00:26:37.880Z,98.30
2023-03-24T00:27:37.881Z,98.61
2023-03-24T00:28:37.863Z,99.07
2023-03-24T00:29:37.859Z,98.91
2023-03-24T00:30:37.850Z,98.86
2023-03-24T00:31:37.884Z,98.91
2023-03-24T00:32:37.893Z,98.36
2023-03-24T00:33:37.837Z,98.40
2023-03-24T00:34:37.907Z,98.50
2023-03-24T00:35:37.838Z,98.81
2023-03-24T00:36:37.843Z,98.91
2023-03-24T00:37:37.804Z,98.71
2023-03-24T00:38:37.803Z,98.61
2023-03-24T00:39:37.810Z,98.61
2023-03-24T00:40:37.784Z,99.11
2023-03-24T00:41:37.794Z,98.91
2023-03-24T00:42:37.775Z,99.22
2023-03-24T00:43:37.760Z,99.32
2023-03-24T00:44:37.789Z,99.32
2023-03-24T00:45:37.752Z,99.22
2023-03-24T00:46:37.822Z,99.27
2023-03-24T00:47:37.740Z,99.22
2023-03-24T00:48:37.713Z,99.22
2023-03-24T00:49:37.715Z,98.91
2023-03-24T00:50:37.700Z,99.11
2023-03-24T00:51:37.732Z,99.02
2023-03-24T00:52:38.696Z,99.02
2023-03-24T00:53:37.678Z,99.32
2023-03-24T00:54:37.680Z,99.02
2023-03-24T00:55:37.678Z,99.32
2023-03-24T00:56:37.896Z,99.43
2023-03-24T00:57:37.644Z,99.43
2023-03-24T00:58:37.641Z,99.99
2023-03-24T00:59:37.642Z,99.63
2023-03-24T01:00:37.670Z,99.99
2023-03-24T01:01:37.780Z,99.99
2023-03-24T01:02:37.688Z,99.99
2023-03-24T01:03:37.617Z,99.93
2023-03-24T01:04:37.609Z,99.99
2023-03-24T01:05:37.592Z,99.99
2023-03-24T01:06:37.661Z,99.99
2023-03-24T01:07:37.593Z,99.99
2023-03-24T01:08:37.609Z,99.99
2023-03-24T01:09:37.562Z,99.99
2023-03-24T01:10:37.563Z,99.99
2023-03-24T01:11:37.584Z,99.99
2023-03-24T01:12:37.543Z,99.99
2023-03-24T01:13:37.531Z,99.99
2023-03-24T01:14:37.523Z,99.73
2023-03-24T01:15:37.563Z,99.99
2023-03-24T01:16:37.538Z,99.99
2023-03-24T01:17:37.550Z,99.99
2023-03-24T01:18:37.482Z,99.99
2023-03-24T01:19:38.471Z,99.99
2023-03-24T01:20:37.468Z,99.99
2023-03-24T01:21:37.479Z,99.99
2023-03-24T01:22:37.475Z,99.99
2023-03-24T01:23:37.446Z,99.99
2023-03-24T01:24:37.449Z,99.99
2023-03-24T01:25:37.435Z,99.99
2023-03-24T01:26:37.454Z,99.99
2023-03-24T01:27:37.437Z,99.99
2023-03-24T01:28:37.391Z,99.99
2023-03-24T01:29:37.383Z,99.99
2023-03-24T01:30:37.397Z,99.99
2023-03-24T01:31:37.438Z,99.99
2023-03-24T01:32:37.464Z,99.99
2023-03-24T01:33:37.367Z,99.99
2023-03-24T01:34:37.368Z,99.84
2023-03-24T01:35:37.388Z,99.99
2023-03-24T01:36:37.403Z,99.99
2023-03-24T01:37:37.353Z,99.99
2023-03-24T01:38:37.334Z,99.99
2023-03-24T01:39:37.331Z,99.99
2023-03-24T01:40:37.327Z,99.99
2023-03-24T01:41:37.361Z,99.99
2023-03-24T01:42:37.296Z,99.99
2023-03-24T01:43:37.306Z,99.99
2023-03-24T01:44:37.324Z,99.99
2023-03-24T01:45:37.359Z,99.99
2023-03-24T01:46:37.305Z,99.93
2023-03-24T01:47:37.316Z,99.89
2023-03-24T01:48:37.269Z,99.99
2023-03-24T01:49:37.254Z,99.99
2023-03-24T01:50:37.248Z,99.99
2023-03-24T01:51:37.273Z,99.99
2023-03-24T01:52:37.224Z,99.48
2023-03-24T01:53:37.242Z,99.38
2023-03-24T01:54:37.233Z,99.58
2023-03-24T01:55:37.217Z,99.38
2023-03-24T01:56:37.230Z,99.58
2023-03-24T01:57:37.199Z,99.48
2023-03-24T01:58:37.255Z,99.38
2023-03-24T01:59:37.198Z,99.48
2023-03-24T02:00:37.167Z,99.48
2023-03-24T02:01:38.264Z,99.27
2023-03-24T02:02:37.177Z,99.68
2023-03-24T02:03:37.175Z,99.18
2023-03-24T02:04:37.164Z,99.38
2023-03-24T02:05:37.139Z,99.27
2023-03-24T02:06:37.226Z,99.38
2023-03-24T02:07:37.126Z,99.48
2023-03-24T02:08:37.102Z,99.58
2023-03-24T02:09:37.119Z,99.38
2023-03-24T02:10:37.087Z,99.27
2023-03-24T02:11:37.114Z,98.97
2023-03-24T02:12:37.094Z,98.97
2023-03-24T02:13:37.074Z,98.77
2023-03-24T02:14:37.083Z,99.27
2023-03-24T02:15:37.051Z,99.27
2023-03-24T02:16:37.165Z,98.97
2023-03-24T02:17:37.063Z,98.86
2023-03-24T02:18:37.058Z,98.86
2023-03-24T02:19:37.085Z,99.07
2023-03-24T02:20:37.015Z,99.18
2023-03-24T02:21:37.038Z,98.97
2023-03-24T02:22:37.063Z,98.86
2023-03-24T02:23:37.000Z,98.77
2023-03-24T02:24:36.996Z,98.66
2023-03-24T02:25:37.874Z,98.77
2023-03-24T02:26:36.994Z,99.18
2023-03-24T02:27:36.988Z,99.38
2023-03-24T02:28:36.986Z,99.18
2023-03-24T02:29:36.958Z,98.86
2023-03-24T02:30:36.941Z,98.77
2023-03-24T02:31:36.984Z,98.77
2023-03-24T02:32:36.985Z,99.07
2023-03-24T02:33:36.937Z,99.07
2023-03-24T02:34:36.947Z,99.11
2023-03-24T02:35:36.920Z,98.77
2023-03-24T02:36:36.926Z,98.97
2023-03-24T02:37:36.943Z,99.07
2023-03-24T02:38:36.914Z,98.97
2023-03-24T02:39:36.899Z,99.07
2023-03-24T02:40:36.875Z,99.27
2023-03-24T02:41:36.867Z,99.07
2023-03-24T02:42:36.892Z,98.46
2023-03-24T02:43:36.853Z,98.77
2023-03-24T02:44:36.882Z,98.97
2023-03-24T02:45:36.849Z,98.77
2023-03-24T02:46:36.837Z,98.77
2023-03-24T02:47:37.902Z,98.86
2023-03-24T02:48:36.817Z,98.66
2023-03-24T02:49:36.804Z,99.07
2023-03-24T02:50:36.798Z,98.36
2023-03-24T02:51:36.777Z,99.07
2023-03-24T02:52:36.790Z,98.86
2023-03-24T02:53:36.767Z,98.97
2023-03-24T02:54:36.748Z,98.97
2023-03-24T02:55:36.781Z,98.66
2023-03-24T02:56:36.811Z,98.66
2023-03-24T02:57:36.769Z,98.77
2023-03-24T02:58:36.739Z,98.61
2023-03-24T02:59:36.723Z,99.07
2023-03-24T03:00:36.720Z,99.07
2023-03-24T03:01:36.807Z,98.86
2023-03-24T03:02:36.779Z,99.02
2023-03-24T03:03:36.708Z,99.11
2023-03-24T03:04:36.737Z,99.32
2023-03-24T03:05:36.661Z,99.02
2023-03-24T03:06:36.672Z,99.22
2023-03-24T03:07:36.705Z,99.11
2023-03-24T03:08:36.685Z,99.32
2023-03-24T03:09:36.673Z,99.52
2023-03-24T03:10:36.633Z,99.22
2023-03-24T03:11:36.621Z,99.22
2023-03-24T03:12:36.635Z,99.99
2023-03-24T03:13:36.680Z,99.99
2023-03-24T03:14:36.622Z,99.99
2023-03-24T03:15:36.691Z,99.99
2023-03-24T03:16:36.602Z,99.99
2023-03-24T03:17:36.627Z,99.99
2023-03-24T03:18:36.663Z,99.99
2023-03-24T03:19:36.571Z,99.99
2023-03-24T03:20:36.560Z,99.99
2023-03-24T03:21:36.557Z,99.99
2023-03-24T03:22:36.567Z,99.99
2023-03-24T03:23:36.566Z,99.99
2023-03-24T03:24:36.534Z,99.99
2023-03-24T03:25:36.537Z,99.99
2023-03-24T03:26:36.516Z,99.99
2023-03-24T03:27:36.516Z,99.99
2023-03-24T03:28:36.541Z,99.99
2023-03-24T03:29:36.513Z,99.99
2023-03-24T03:30:36.492Z,99.99
2023-03-24T03:31:36.584Z,99.99
2023-03-24T03:32:36.477Z,99.99
2023-03-24T03:33:36.498Z,99.99
2023-03-24T03:34:36.478Z,99.99
2023-03-24T03:35:36.478Z,99.99
2023-03-24T03:36:36.430Z,99.99
2023-03-24T03:37:36.441Z,99.99
2023-03-24T03:38:36.455Z,99.99
2023-03-24T03:39:36.463Z,99.99
2023-03-24T03:40:36.429Z,99.99
2023-03-24T03:41:36.420Z,99.99
2023-03-24T03:42:36.417Z,99.99
2023-03-24T03:43:36.436Z,99.99
2023-03-24T03:44:36.411Z,99.99
2023-03-24T03:45:36.409Z,99.99
2023-03-24T03:46:36.489Z,99.99
2023-03-24T03:47:36.404Z,99.99
2023-03-24T03:48:36.415Z,99.99
2023-03-24T03:49:36.373Z,99.99
2023-03-24T03:50:36.357Z,99.99
2023-03-24T03:51:37.379Z,99.99
2023-03-24T03:52:36.373Z,99.99
2023-03-24T03:53:36.372Z,99.99
2023-03-24T03:54:36.333Z,99.99
2023-03-24T03:55:36.315Z,99.99
2023-03-24T03:56:36.360Z,99.99
2023-03-24T03:57:36.315Z,99.99
2023-03-24T03:58:36.337Z,99.99
2023-03-24T03:59:36.288Z,99.99
2023-03-24T04:00:36.278Z,99.99
2023-03-24T04:01:36.295Z,99.99
2023-03-24T04:02:36.319Z,99.99
2023-03-24T04:03:36.359Z,99.99
2023-03-24T04:04:36.269Z,99.99
2023-03-24T04:05:36.242Z,99.99
2023-03-24T04:06:36.241Z,99.99
2023-03-24T04:07:36.230Z,99.99
2023-03-24T04:08:36.239Z,99.99
2023-03-24T04:09:36.236Z,99.99
2023-03-24T04:10:36.194Z,99.99
2023-03-24T04:11:36.223Z,99.99
2023-03-24T04:12:36.201Z,99.99
2023-03-24T04:13:36.171Z,99.99
2023-03-24T04:14:36.201Z,99.99
2023-03-24T04:15:36.174Z,99.99
2023-03-24T04:16:36.218Z,99.99
2023-03-24T04:17:36.182Z,99.99
2023-03-24T04:18:36.145Z,99.99
2023-03-24T04:19:36.161Z,99.99
2023-03-24T04:20:36.143Z,99.99
2023-03-24T04:21:36.140Z,99.99
2023-03-24T04:22:36.152Z,99.99
2023-03-24T04:23:36.125Z,99.99
2023-03-24T04:24:36.106Z,99.99
2023-03-24T04:25:36.104Z,99.99
2023-03-24T04:26:36.084Z,99.99
2023-03-24T04:27:36.084Z,99.99
2023-03-24T04:28:36.067Z,99.99
2023-03-24T04:29:36.093Z,99.99
2023-03-24T04:30:36.066Z,99.99
2023-03-24T04:31:36.067Z,99.99
2023-03-24T04:32:36.072Z,99.99
2023-03-24T04:33:36.026Z,99.99
2023-03-24T04:34:36.053Z,99.99
2023-03-24T04:35:36.022Z,99.99
2023-03-24T04:36:36.028Z,99.99
2023-03-24T04:37:36.058Z,99.99
2023-03-24T04:38:35.994Z,99.99
2023-03-24T04:39:36.024Z,99.99
2023-03-24T04:40:36.015Z,99.99
2023-03-24T04:41:35.981Z,99.99
2023-03-24T04:42:35.992Z,99.99
2023-03-24T04:43:35.978Z,99.98
2023-03-24T04:44:36.021Z,99.99
2023-03-24T04:45:36.985Z,99.99
2023-03-24T04:46:35.949Z,99.99
2023-03-24T04:47:35.950Z,99.99
2023-03-24T04:48:35.956Z,99.99
2023-03-24T04:49:35.969Z,99.99
2023-03-24T04:50:35.928Z,99.99
2023-03-24T04:51:35.901Z,99.99
2023-03-24T04:52:35.901Z,99.99
2023-03-24T04:53:35.882Z,99.99
2023-03-24T04:54:35.924Z,99.84
2023-03-24T04:55:35.902Z,99.63
2023-03-24T04:56:35.899Z,99.52
2023-03-24T04:57:35.855Z,99.52
2023-03-24T04:58:35.853Z,99.43
2023-03-24T04:59:35.877Z,99.43
2023-03-24T05:00:35.868Z,99.32
2023-03-24T05:01:35.834Z,99.22
2023-03-24T05:02:35.861Z,99.43
2023-03-24T05:03:35.859Z,99.32
2023-03-24T05:04:35.791Z,99.52
2023-03-24T05:05:35.818Z,99.32
2023-03-24T05:06:35.780Z,99.02
2023-03-24T05:07:35.786Z,99.32
2023-03-24T05:08:35.776Z,99.43
2023-03-24T05:09:35.772Z,99.32
2023-03-24T05:10:35.780Z,99.43
2023-03-24T05:11:35.742Z,99.43
2023-03-24T05:12:35.744Z,99.22
2023-03-24T05:13:35.714Z,99.27
2023-03-24T05:14:35.738Z,99.32
2023-03-24T05:15:35.748Z,99.27
2023-03-24T05:16:35.809Z,99.22
2023-03-24T05:17:35.731Z,99.48
2023-03-24T05:18:35.701Z,99.58
2023-03-24T05:19:35.695Z,99.58
2023-03-24T05:20:35.715Z,99.48
2023-03-24T05:21:35.679Z,99.38
2023-03-24T05:22:35.662Z,99.43
2023-03-24T05:23:35.679Z,99.18
2023-03-24T05:24:35.695Z,99.18
2023-03-24T05:25:35.682Z,99.84
2023-03-24T05:26:35.626Z,99.68
2023-03-24T05:27:35.614Z,99.52
2023-03-24T05:28:36.632Z,99.18
2023-03-24T05:29:35.611Z,99.58
2023-03-24T05:30:35.711Z,99.48
2023-03-24T05:31:35.605Z,99.18
2023-03-24T05:32:35.601Z,99.48
2023-03-24T05:33:35.612Z,99.68
2023-03-24T05:34:35.591Z,99.48
2023-03-24T05:35:35.606Z,99.38
2023-03-24T05:36:35.581Z,99.38
2023-03-24T05:37:35.563Z,99.79
2023-03-24T05:38:35.556Z,99.68
2023-03-24T05:39:35.542Z,99.48
2023-03-24T05:40:35.562Z,99.18
2023-03-24T05:41:35.520Z,99.38
2023-03-24T05:42:35.539Z,99.27
2023-03-24T05:43:35.592Z,99.79
2023-03-24T05:44:35.492Z,99.58
2023-03-24T05:45:35.527Z,99.38
2023-03-24T05:46:35.550Z,99.38
2023-03-24T05:47:35.511Z,99.27
2023-03-24T05:48:35.515Z,99.38
2023-03-24T05:49:35.453Z,99.38
2023-03-24T05:50:35.482Z,99.38
2023-03-24T05:51:35.465Z,98.77
2023-03-24T05:52:35.425Z,98.97
2023-03-24T05:53:35.459Z,98.93
2023-03-24T05:54:35.413Z,99.18
2023-03-24T05:55:35.480Z,99.07
2023-03-24T05:56:35.444Z,98.97
2023-03-24T05:57:36.406Z,99.27
2023-03-24T05:58:35.398Z,98.86
2023-03-24T05:59:35.382Z,98.97
2023-03-24T06:00:35.402Z,98.77
2023-03-24T06:01:35.359Z,98.61
2023-03-24T06:02:35.404Z,98.72
2023-03-24T06:03:35.498Z,98.82
2023-03-24T06:04:35.442Z,98.41
2023-03-24T06:05:36.372Z,98.52
2023-03-24T06:06:35.355Z,98.93
2023-03-24T06:07:35.314Z,98.61
2023-03-24T06:08:35.328Z,99.02
2023-03-24T06:09:35.318Z,98.21
2023-03-24T06:10:35.494Z,98.61
2023-03-24T06:11:35.281Z,98.82
2023-03-24T06:12:35.294Z,98.82
2023-03-24T06:13:35.277Z,98.82
2023-03-24T06:14:35.260Z,98.93
2023-03-24T06:15:35.346Z,98.82
2023-03-24T06:16:35.308Z,98.61
2023-03-24T06:17:35.269Z,98.61
2023-03-24T06:18:35.257Z,98.93
2023-03-24T06:19:35.233Z,98.82
2023-03-24T06:20:35.241Z,98.31
2023-03-24T06:21:35.458Z,98.36
2023-03-24T06:22:36.215Z,98.47
2023-03-24T06:23:35.214Z,98.06
2023-03-24T06:24:35.185Z,98.27
2023-03-24T06:25:35.190Z,98.47
2023-03-24T06:26:35.190Z,97.86
2023-03-24T06:27:35.177Z,97.75
2023-03-24T06:28:35.172Z,97.96
2023-03-24T06:29:35.159Z,97.75
2023-03-24T06:30:35.166Z,98.06
2023-03-24T06:31:35.242Z,98.16
2023-03-24T06:32:35.141Z,98.06
2023-03-24T06:33:36.131Z,98.16
2023-03-24T06:34:35.107Z,98.06
2023-03-24T06:35:35.100Z,97.81
2023-03-24T06:36:35.110Z,98.11
2023-03-24T06:37:35.098Z,98.32
2023-03-24T06:38:35.081Z,97.96
2023-03-24T06:39:35.089Z,97.55
2023-03-24T06:40:35.072Z,98.06
2023-03-24T06:41:35.085Z,97.86
2023-03-24T06:42:35.045Z,97.75
2023-03-24T06:43:35.043Z,98.27
2023-03-24T06:44:35.029Z,98.68
2023-03-24T06:45:35.016Z,98.57
2023-03-24T06:46:35.084Z,98.68
2023-03-24T06:47:35.031Z,98.36
2023-03-24T06:48:35.014Z,98.57
2023-03-24T06:49:35.010Z,98.57
2023-03-24T06:50:34.987Z,98.57
2023-03-24T06:51:35.016Z,98.88
2023-03-24T06:52:34.987Z,98.63
2023-03-24T06:53:34.967Z,98.32
2023-03-24T06:54:34.969Z,98.32
2023-03-24T06:55:34.945Z,97.50
2023-03-24T06:56:34.987Z,97.50
2023-03-24T06:57:34.931Z,97.91
2023-03-24T06:58:34.915Z,98.22
2023-03-24T06:59:34.916Z,97.56
2023-03-24T07:00:34.933Z,97.56
2023-03-24T07:01:35.018Z,97.31
2023-03-24T07:02:34.944Z,97.00
2023-03-24T07:03:34.991Z,96.30
2023-03-24T07:04:34.892Z,96.19
2023-03-24T07:05:35.813Z,96.70
2023-03-24T07:06:43.223Z,96.25
2023-03-24T07:08:08.351Z,96.45
2023-03-24T07:08:38.500Z,96.55
2023-03-24T07:09:35.853Z,95.49
2023-03-24T07:10:34.823Z,95.33
2023-03-24T07:11:34.846Z,95.29
2023-03-24T07:12:34.808Z,94.88
2023-03-24T07:13:34.854Z,95.08
2023-03-24T07:14:34.817Z,94.73
2023-03-24T07:15:34.792Z,94.53
2023-03-24T07:16:34.846Z,95.29
2023-03-24T07:17:34.809Z,94.88
2023-03-24T07:18:34.776Z,95.39
2023-03-24T07:19:34.774Z,95.08
2023-03-24T07:20:34.763Z,94.73
2023-03-24T07:21:34.766Z,95.04
2023-03-24T07:22:34.745Z,94.73
2023-03-24T07:23:34.758Z,94.93
2023-03-24T07:24:34.741Z,95.04
2023-03-24T07:25:34.727Z,94.12
2023-03-24T07:26:34.741Z,94.43
2023-03-24T07:27:34.709Z,93.62
2023-03-24T07:28:34.731Z,93.71
2023-03-24T07:29:34.682Z,93.55
2023-03-24T07:30:40.650Z,93.15
2023-03-24T07:31:36.701Z,93.51
2023-03-24T07:32:34.784Z,93.51
2023-03-24T07:33:34.651Z,94.02
2023-03-24T07:34:34.646Z,93.82
2023-03-24T07:35:34.681Z,94.12
2023-03-24T07:36:34.659Z,93.67
2023-03-24T07:37:34.625Z,93.26
2023-03-24T07:38:34.667Z,93.32
2023-03-24T07:39:34.620Z,93.16
2023-03-24T07:40:34.649Z,92.41
2023-03-24T07:41:34.708Z,91.60
2023-03-24T07:42:34.599Z,91.49
2023-03-24T07:43:34.601Z,91.25
2023-03-24T07:44:34.584Z,91.35
2023-03-24T07:45:34.638Z,90.64
2023-03-24T07:46:34.661Z,89.98
2023-03-24T07:47:34.600Z,90.19
2023-03-24T07:48:34.542Z,89.68
2023-03-24T07:49:34.552Z,90.09
2023-03-24T07:50:34.556Z,89.88
2023-03-24T07:51:37.799Z,89.88
2023-03-24T07:52:36.510Z,89.17
2023-03-24T07:53:34.504Z,89.48
2023-03-24T07:54:34.551Z,89.13
2023-03-24T07:55:34.498Z,88.73
2023-03-24T07:56:34.557Z,88.48
2023-03-24T07:57:35.350Z,88.48
2023-03-24T07:58:34.469Z,88.28
2023-03-24T07:59:34.492Z,88.28
2023-03-24T08:00:34.462Z,87.26
2023-03-24T08:01:35.509Z,87.61
2023-03-24T08:02:34.504Z,88.32
2023-03-24T08:03:34.553Z,88.52
2023-03-24T08:04:34.452Z,88.21
2023-03-24T08:05:34.416Z,88.06
2023-03-24T08:06:34.402Z,88.36
2023-03-24T08:07:34.716Z,88.26
2023-03-24T08:08:34.400Z,88.46
2023-03-24T08:09:34.387Z,88.46
2023-03-24T08:10:34.382Z,88.67
2023-03-24T08:11:34.360Z,88.97
2023-03-24T08:12:34.411Z,88.67
2023-03-24T08:13:34.365Z,88.76
2023-03-24T08:14:34.352Z,88.87
2023-03-24T08:15:35.340Z,88.46
2023-03-24T08:16:34.678Z,88.36
2023-03-24T08:17:34.380Z,88.81
2023-03-24T08:18:34.373Z,88.91
2023-03-24T08:19:34.653Z,88.60
2023-03-24T08:20:34.315Z,88.67
2023-03-24T08:21:34.304Z,88.16
2023-03-24T08:22:34.374Z,87.95
2023-03-24T08:23:34.278Z,87.65
2023-03-24T08:24:34.297Z,87.61
2023-03-24T08:25:34.279Z,87.45
2023-03-24T08:26:34.264Z,87.00
2023-03-24T08:27:34.288Z,86.02
2023-03-24T08:28:34.249Z,86.13
2023-03-24T08:29:34.302Z,86.02
2023-03-24T08:30:34.257Z,86.33
2023-03-24T08:31:34.259Z,86.19
2023-03-24T08:32:34.292Z,86.08
2023-03-24T08:33:34.207Z,86.59
2023-03-24T08:34:34.208Z,86.55
2023-03-24T08:35:34.207Z,86.76
2023-03-24T08:36:34.568Z,85.94
2023-03-24T08:37:34.221Z,85.74
2023-03-24T08:38:34.195Z,85.47
2023-03-24T08:39:34.179Z,85.78
2023-03-24T08:40:34.156Z,86.19
2023-03-24T08:41:34.147Z,86.49
2023-03-24T08:42:34.172Z,87.10
2023-03-24T08:43:34.150Z,86.90
2023-03-24T08:44:34.117Z,87.49
2023-03-24T08:45:34.115Z,83.48
2023-03-24T08:46:34.185Z,85.69
2023-03-24T08:47:34.151Z,86.96
2023-03-24T08:48:34.088Z,88.18
2023-03-24T08:49:34.089Z,87.41
2023-03-24T08:50:34.077Z,87.96
2023-03-24T08:51:34.069Z,87.96
2023-03-24T08:52:34.056Z,88.41
2023-03-24T08:53:34.075Z,88.51
2023-03-24T08:54:35.075Z,88.85
2023-03-24T08:55:34.043Z,87.84
2023-03-24T08:56:34.031Z,87.12
2023-03-24T08:57:34.022Z,87.02
2023-03-24T08:58:34.040Z,87.84
2023-03-24T08:59:34.013Z,88.29
2023-03-24T09:00:33.985Z,87.16
2023-03-24T09:01:34.024Z,87.88
2023-03-24T09:02:34.006Z,88.39
2023-03-24T09:03:34.002Z,88.94
2023-03-24T09:04:34.000Z,89.20
2023-03-24T09:05:44.109Z,89.35
2023-03-24T09:06:35.963Z,87.71
2023-03-24T09:07:33.940Z,88.02
2023-03-24T09:08:33.969Z,86.18
2023-03-24T09:09:33.936Z,87.30
2023-03-24T09:10:33.928Z,87.71
2023-03-24T09:11:33.910Z,87.92
2023-03-24T09:12:33.914Z,88.29
2023-03-24T09:13:33.951Z,87.92
2023-03-24T09:14:33.887Z,87.77
2023-03-24T09:15:33.924Z,87.88
2023-03-24T09:16:33.956Z,87.88
2023-03-24T09:17:33.900Z,87.67
2023-03-24T09:18:33.926Z,87.77
2023-03-24T09:19:33.879Z,86.96
2023-03-24T09:20:33.858Z,87.67
2023-03-24T09:21:33.838Z,87.41
2023-03-24T09:22:33.960Z,88.08
2023-03-24T09:23:33.873Z,87.47
2023-03-24T09:24:33.804Z,87.88
2023-03-24T09:25:33.820Z,87.20
2023-03-24T09:26:33.812Z,86.65
2023-03-24T09:27:33.812Z,87.71
2023-03-24T09:28:33.802Z,87.00
2023-03-24T09:29:33.789Z,86.79
2023-03-24T09:30:35.130Z,87.20
2023-03-24T09:31:33.802Z,87.16
2023-03-24T09:32:33.798Z,86.35
2023-03-24T09:33:33.782Z,86.69
2023-03-24T09:34:33.749Z,86.59
2023-03-24T09:35:33.754Z,86.69
2023-03-24T09:36:33.727Z,87.10
2023-03-24T09:37:33.723Z,87.71
2023-03-24T09:38:33.779Z,87.41
2023-03-24T09:39:33.702Z,87.61
2023-03-24T09:40:33.718Z,85.77
2023-03-24T09:41:34.655Z,86.18
2023-03-24T09:42:34.667Z,87.20
2023-03-24T09:43:33.708Z,87.10
2023-03-24T09:44:33.649Z,86.73
2023-03-24T09:45:33.651Z,87.45
2023-03-24T09:46:33.693Z,87.10
2023-03-24T09:47:33.687Z,87.71
2023-03-24T09:48:33.630Z,87.55
2023-03-24T09:49:33.838Z,88.02
2023-03-24T09:50:33.608Z,87.82
2023-03-24T09:51:33.615Z,88.02
2023-03-24T09:52:33.607Z,88.88
2023-03-24T09:53:33.618Z,88.84
2023-03-24T09:54:33.600Z,89.50
2023-03-24T09:55:33.591Z,90.00
2023-03-24T09:56:33.627Z,89.39
2023-03-24T09:57:33.564Z,89.70
2023-03-24T09:58:33.675Z,90.21
2023-03-24T09:59:33.588Z,90.82
2023-03-24T10:00:33.590Z,90.41
2023-03-24T10:01:33.548Z,89.74
2023-03-24T10:02:33.592Z,89.94
2023-03-24T10:03:33.650Z,90.05
2023-03-24T10:04:33.545Z,90.66
2023-03-24T10:05:33.522Z,91.07
2023-03-24T10:06:33.509Z,91.07
2023-03-24T10:07:33.514Z,91.07
2023-03-24T10:08:33.499Z,90.92
2023-03-24T10:09:33.528Z,91.64
2023-03-24T10:10:33.462Z,91.27
2023-03-24T10:11:33.456Z,91.33
2023-03-24T10:12:34.451Z,92.40
2023-03-24T10:13:33.438Z,92.50
2023-03-24T10:14:33.472Z,92.40
2023-03-24T10:15:37.869Z,91.27
2023-03-24T10:16:35.455Z,91.78
2023-03-24T10:17:33.452Z,92.50
2023-03-24T10:18:33.406Z,92.34
2023-03-24T10:19:33.429Z,92.65
2023-03-24T10:20:33.378Z,92.65
2023-03-24T10:21:33.391Z,92.55
2023-03-24T10:22:33.441Z,92.44
2023-03-24T10:23:33.427Z,92.44
2023-03-24T10:24:33.359Z,93.06
2023-03-24T10:25:33.339Z,91.63
2023-03-24T10:26:33.320Z,92.65
2023-03-24T10:27:33.323Z,92.24
2023-03-24T10:28:33.311Z,92.65
2023-03-24T10:29:33.328Z,92.24
2023-03-24T10:30:33.296Z,92.24
2023-03-24T10:31:33.342Z,92.55
2023-03-24T10:32:33.314Z,92.75
2023-03-24T10:33:33.261Z,92.30
2023-03-24T10:34:33.364Z,92.10
2023-03-24T10:35:33.321Z,90.97
2023-03-24T10:36:33.257Z,90.81
2023-03-24T10:37:33.265Z,90.81
2023-03-24T10:38:33.231Z,91.17
2023-03-24T10:39:44.053Z,90.77
2023-03-24T10:40:35.213Z,90.45
2023-03-24T10:41:33.203Z,89.74
2023-03-24T10:42:33.227Z,90.39
2023-03-24T10:43:33.190Z,90.66
2023-03-24T10:44:33.175Z,90.60
2023-03-24T10:45:33.244Z,90.86
2023-03-24T10:46:33.223Z,90.66
2023-03-24T10:47:33.273Z,89.64
2023-03-24T10:48:33.227Z,89.74
2023-03-24T10:49:33.142Z,90.70
2023-03-24T10:50:33.156Z,90.81
2023-03-24T10:51:33.132Z,91.99
2023-03-24T10:52:33.119Z,92.19
2023-03-24T10:53:33.107Z,92.30
2023-03-24T10:54:33.108Z,92.10
2023-03-24T10:55:33.152Z,92.81
2023-03-24T10:56:33.099Z,92.65
2023-03-24T10:57:33.079Z,92.96
2023-03-24T10:58:33.066Z,93.88
2023-03-24T10:59:33.075Z,94.02
2023-03-24T11:00:33.091Z,93.57
2023-03-24T11:01:33.106Z,93.41
2023-03-24T11:02:33.111Z,93.82
2023-03-24T11:03:33.089Z,93.30
2023-03-24T11:04:33.017Z,94.12
2023-03-24T11:05:33.107Z,93.92
2023-03-24T11:06:33.034Z,94.02
2023-03-24T11:07:32.996Z,93.92
2023-03-24T11:08:33.025Z,93.62
2023-03-24T11:09:33.018Z,93.71
2023-03-24T11:10:33.021Z,93.62
2023-03-24T11:11:33.026Z,93.92
2023-03-24T11:12:32.975Z,93.77
2023-03-24T11:13:32.957Z,94.08
2023-03-24T11:14:32.968Z,94.33
2023-03-24T11:15:33.097Z,94.33
2023-03-24T11:16:32.976Z,93.77
2023-03-24T11:17:32.942Z,93.88
2023-03-24T11:18:32.935Z,93.88
2023-03-24T11:19:32.908Z,94.02
2023-03-24T11:20:32.926Z,93.77
2023-03-24T11:21:32.902Z,93.67
2023-03-24T11:22:32.900Z,93.57
2023-03-24T11:23:32.884Z,93.01
2023-03-24T11:24:32.901Z,93.93
2023-03-24T11:25:34.365Z,93.52
2023-03-24T11:26:33.858Z,92.56
2023-03-24T11:27:32.896Z,92.87
2023-03-24T11:28:32.830Z,92.77
2023-03-24T11:29:32.855Z,92.46
2023-03-24T11:30:32.876Z,92.11
2023-03-24T11:31:32.855Z,91.50
2023-03-24T11:32:32.812Z,90.58
2023-03-24T11:33:34.948Z,90.78
2023-03-24T11:34:32.783Z,90.84
2023-03-24T11:35:59.177Z,90.39
2023-03-24T11:36:34.940Z,90.86
2023-03-24T11:37:32.787Z,89.78
2023-03-24T11:38:32.760Z,89.67
2023-03-24T11:39:32.755Z,90.66
2023-03-24T11:40:32.749Z,90.29
2023-03-24T11:41:32.767Z,90.29
2023-03-24T11:42:32.729Z,90.19
2023-03-24T11:43:32.729Z,90.59
2023-03-24T11:44:32.717Z,91.11
2023-03-24T11:45:32.710Z,91.78
2023-03-24T11:46:32.741Z,90.39
2023-03-24T11:47:32.794Z,90.45
2023-03-24T11:48:32.680Z,90.55
2023-03-24T11:49:32.671Z,89.84
2023-03-24T11:50:32.685Z,90.31
2023-03-24T11:51:32.690Z,90.71
2023-03-24T11:52:32.658Z,89.90
2023-03-24T11:53:32.649Z,89.79
2023-03-24T11:54:33.181Z,89.79
2023-03-24T11:55:33.629Z,89.45
2023-03-24T11:56:32.687Z,89.55
2023-03-24T11:57:32.621Z,89.34
2023-03-24T11:58:32.701Z,89.14
2023-03-24T11:59:32.606Z,89.20
2023-03-24T12:00:34.341Z,89.00
2023-03-24T12:01:32.605Z,89.00
2023-03-24T12:02:32.751Z,89.30
2023-03-24T12:03:32.675Z,88.90
2023-03-24T12:04:32.563Z,88.39
2023-03-24T12:05:32.604Z,87.47
2023-03-24T12:06:32.584Z,86.65
2023-03-24T12:07:32.546Z,87.82
2023-03-24T12:08:32.541Z,88.28
2023-03-24T12:09:32.540Z,88.18
2023-03-24T12:10:32.527Z,88.55
2023-03-24T12:11:32.565Z,88.75
2023-03-24T12:12:33.519Z,88.34
2023-03-24T12:13:33.548Z,87.02
2023-03-24T12:14:32.514Z,86.41
2023-03-24T12:15:33.451Z,87.43
2023-03-24T12:16:32.580Z,85.90
2023-03-24T12:17:32.494Z,85.90
2023-03-24T12:18:32.519Z,85.80
2023-03-24T12:19:32.511Z,85.69
2023-03-24T12:20:32.448Z,86.10
2023-03-24T12:21:32.465Z,86.06
2023-03-24T12:22:32.442Z,85.66
2023-03-24T12:23:32.420Z,84.84
2023-03-24T12:24:32.492Z,84.90
2023-03-24T12:25:32.412Z,84.39
2023-03-24T12:26:32.445Z,83.89
2023-03-24T12:27:32.394Z,84.19
2023-03-24T12:28:32.384Z,83.74
2023-03-24T12:29:32.380Z,83.58
2023-03-24T12:30:32.375Z,83.48
2023-03-24T12:31:32.429Z,83.37
2023-03-24T12:32:32.396Z,83.78
2023-03-24T12:33:32.374Z,85.11
2023-03-24T12:34:32.341Z,83.84
2023-03-24T12:35:32.351Z,83.27
2023-03-24T12:36:32.346Z,83.03
2023-03-24T12:37:32.360Z,83.68
2023-03-24T12:38:32.305Z,83.44
2023-03-24T12:39:32.299Z,82.62
2023-03-24T12:40:32.336Z,82.42
2023-03-24T12:41:32.318Z,82.73
2023-03-24T12:42:32.370Z,82.99
2023-03-24T12:43:32.258Z,82.85
2023-03-24T12:44:32.261Z,82.65
2023-03-24T12:45:32.267Z,81.84
2023-03-24T12:46:46.685Z,80.82
2023-03-24T12:47:34.368Z,81.33
2023-03-24T12:48:32.222Z,79.80
2023-03-24T12:49:32.213Z,80.65
2023-03-24T12:50:32.206Z,81.16
2023-03-24T12:51:32.247Z,81.23
2023-03-24T12:52:33.198Z,81.53